Adams Ranch #1

2020-09-27 19:00:00

  • imperial
Date Time Air Temperature Relative Humidity Wind Speed Wind Dir. Precipitation Solar Radiation Soil Temperature Soil Temperature Soil Temperature Soil Temperature Soil Temperature
5cm 10cm 20cm 50cm 100cm
US/Mountain F % MPH deg in MJ/m^2 F F F F F
max min avg max min max avg avg
2020-09-26 21:00:00 70.7 68.4 69.6 19.0 17.0 6.8 4.3 -99.9 0.00 0.0000000 74.3 75.4 74.3 69.6 68.2
2020-09-26 22:00:00 68.5 65.8 67.1 21.0 18.0 6.9 3.9 -99.9 0.00 0.0000000 72.3 73.9 73.9 69.6 68.4
2020-09-26 23:00:00 66.0 64.6 65.3 19.0 19.0 5.9 3.5 -99.9 0.00 0.0000000 70.7 72.7 73.2 69.8 68.4
2020-09-27 00:00:00 65.7 64.2 65.1 19.0 18.0 5.1 3.5 -99.9 0.00 0.0000000 69.3 71.6 72.7 70.0 68.4
2020-09-27 01:00:00 71.4 64.2 64.8 20.0 14.0 11.6 4.4 -99.9 0.00 0.0000000 68.0 -147.8 72.1 70.0 68.4
2020-09-27 02:00:00 71.4 69.1 70.5 16.0 14.0 14.7 8.3 -99.9 0.00 0.0000000 67.1 69.4 71.4 70.2 68.4
2020-09-27 03:00:00 70.9 67.3 70.0 18.0 15.0 15.2 9.0 -99.9 0.00 0.0000000 66.6 68.7 70.9 70.2 68.4
2020-09-27 04:00:00 68.9 66.6 68.4 21.0 17.0 15.2 9.2 -99.9 0.00 0.0000000 66.0 68.2 70.3 70.2 68.4
2020-09-27 05:00:00 68.2 66.4 67.3 23.0 21.0 19.6 10.1 -99.9 0.00 0.0000000 65.7 67.6 69.8 70.2 68.4
2020-09-27 06:00:00 68.0 65.5 66.9 26.0 23.0 15.9 9.6 -99.9 0.00 0.0000000 65.3 67.3 69.4 70.0 68.4
2020-09-27 07:00:00 65.8 64.4 65.5 27.0 25.0 13.5 8.0 -99.9 0.00 0.0073440 64.9 66.9 69.1 70.0 68.4
2020-09-27 08:00:00 66.4 64.4 65.1 27.0 25.0 13.0 7.5 -99.9 0.00 0.2424960 64.6 66.6 68.7 70.0 68.4
2020-09-27 09:00:00 74.7 66.4 69.8 25.0 16.0 15.2 9.4 -99.9 0.00 1.0425600 64.8 66.4 68.4 69.8 68.4
2020-09-27 10:00:00 79.5 74.7 77.0 16.0 12.0 17.0 9.7 -99.9 0.00 1.8208800 66.9 66.9 68.2 69.8 68.4
2020-09-27 11:00:00 80.8 79.3 79.9 13.0 10.0 23.2 13.2 -99.9 0.00 2.4037200 71.2 127.6 68.2 69.6 68.4
2020-09-27 12:00:00 82.8 80.6 81.3 11.0 9.0 22.3 13.6 -99.9 0.00 2.7900000 76.3 70.5 68.5 69.6 68.4
2020-09-27 13:00:00 83.7 81.1 82.2 11.0 9.0 20.9 13.8 -99.9 0.00 3.0420000 81.0 73.4 69.4 69.6 68.4
2020-09-27 14:00:00 85.6 83.3 83.8 9.0 8.0 21.0 12.4 -99.9 0.00 2.9484000 84.6 76.5 70.7 69.4 68.4
2020-09-27 15:00:00 85.6 83.8 85.3 8.0 7.0 24.0 13.7 -99.9 0.00 2.6604000 85.5 78.8 72.0 69.4 68.4
2020-09-27 16:00:00 86.4 83.8 84.6 9.0 8.0 24.8 12.9 -99.9 0.00 2.1924000 85.1 80.1 73.2 69.4 68.4
2020-09-27 17:00:00 84.9 83.5 84.4 9.0 8.0 22.4 12.6 -99.9 0.00 1.5577200 83.7 80.2 74.3 69.6 68.4
2020-09-27 18:00:00 83.8 82.0 83.1 10.0 9.0 18.8 11.2 -99.9 0.00 0.8377200 81.9 79.5 74.8 69.6 68.4
2020-09-27 19:00:00 82.0 76.1 80.1 13.0 10.0 14.5 6.2 -99.9 0.00 0.1583640 79.5 78.6 75.0 69.6 68.4

Data is presented as is, with no certification of correctness. DO NOT USE IN LEGAL PROCEEDINGS.